Aviation Digital Data Service (ADDS)

Output produced by METARs form (0736 UTC 24 March 2019)
found at http://www.aviationweather.gov/metar/data/
 
KADF 240656Z AUTO 00000KT 10SM -RA OVC070 14/12 A3009 RMK AO2 RAB29 SLP194 P0000 T01390117
KADF 240536Z 2406/2506 06006KT P6SM VCSH BKN050 
     FM241200 12005KT 5SM BR BKN025 OVC050 
     FM241500 22008KT P6SM OVC030 
     FM250000 20007KT P6SM VCTS BKN050CB 
     PROB30 2500/2506 VRB20G40KT 2SM TSRA BR OVC015CB
       
KBVX 240656Z AUTO 08004KT 10SM BKN090 BKN110 11/09 A3012 RMK AO2 RAE48 SLP200 P0002 T01060089
KSUZ 240715Z AUTO 00000KT 9SM 12/10 A3009 RMK A01
KVBT 240656Z AUTO 12008KT 10SM -RA FEW020 11/09 A3007 RMK AO2 LTG DSNT E AND S TSE44 SLP183 P0018 T01060094
KHKA 240653Z AUTO 13006KT 10SM SCT110 13/06 A3014 RMK AO2 SLP207 T01280056 $
KCDH 240715Z AUTO 17006KT 10SM OVC080 17/07 A3008 RMK AO2
KCCA 240735Z AUTO 00000KT 10SM FEW041 FEW050 OVC065 10/10 A3009 RMK AO2
K4M9 240715Z AUTO 07004KT 10SM FEW049 SCT070 BKN090 11/09 A3014 RMK AO2 PWINO
KDEQ 240653Z AUTO 09005KT 10SM OVC043 15/14 A3005 RMK AO2 SLP171 T01500139
KELD 240653Z AUTO 17006KT 10SM BKN085 17/08 A3010 RMK AO2 SLP191 T01720078
KELD 240532Z 2406/2506 16005KT P6SM BKN110 
     FM241200 16004KT P6SM BKN060 
     FM241500 18007KT P6SM BKN025 
     FM241900 20008KT P6SM BKN030 
     FM242000 20009KT P6SM BKN035 
     FM250000 17004KT P6SM BKN040
       
KFYV 240724Z AUTO 16005KT 10SM SCT042 BKN070 BKN095 12/10 A3006 RMK AO2 LTG DSNT SE RAE18 TSB0655E10 P0007 T01170100
KFYV 240520Z 2406/2506 12007KT P6SM VCTS OVC050CB 
     TEMPO 2406/2409 5SM -TSRA OVC025CB 
     FM240900 18007KT P6SM OVC015 
     FM241500 20010G18KT P6SM OVC015 
     FM242100 22010KT P6SM VCTS OVC015CB 
     FM250000 28006KT P6SM OVC015
       
KXNA 240653Z AUTO 10005KT 10SM FEW023 SCT033 BKN065 11/09 A3005 RMK AO2 LTG DSNT E RAE43 TSE06B08E23 SLP172 P0012 T01110089
KXNA 240724Z 2407/2506 10005KT P6SM VCSH FEW023 SCT035 BKN070 
     FM240900 18007KT P6SM OVC015 
     FM241500 20010G18KT P6SM OVC015 
     FM242100 22010KT P6SM VCTS OVC015CB 
     FM250000 28006KT P6SM OVC015
       
KFLP 240656Z AUTO 11004KT 10SM BKN075 BKN090 09/08 A3009 RMK AO2 RAE28 SLP190 P0000 T00940083
KFSM 240705Z AUTO 06011KT 10SM BKN044 BKN055 OVC080 12/09 A3005 RMK AO2 LTG DSNT NE-S T01170094
KFSM 240725Z 2407/2506 06011KT P6SM VCSH BKN045 BKN060 OVC080 WS020/19045KT 
     TEMPO 2407/2410 3SM TSRA OVC025CB 
     FM241000 08005KT P6SM OVC015 
     FM242100 22010KT P6SM VCTS OVC015CB 
     FM250200 30006KT P6SM OVC015
       
KHRO 240653Z AUTO 31008KT 10SM FEW050 OVC065 09/08 A3008 RMK AO2 RAB25E38 PRESRR SLP183 P0000 T00890078 TSNO
KHRO 240536Z 2406/2506 14009KT P6SM VCTS SCT025 BKN050CB 
     TEMPO 2407/2410 5SM -TSRA BR OVC025CB 
     FM241400 21012KT P6SM BKN025 OVC050 
     FM242000 23010G18KT P6SM VCTS BKN050CB 
     PROB30 2420/2502 4SM -TSRA BR OVC025CB 
     FM250200 30008KT P6SM SCT050 BKN100
       
KHOT 240653Z AUTO 09005KT 10SM BKN070 BKN090 OVC110 13/11 A3009 RMK AO2 RAB08E37 SLP187 P0000 T01330111
KHOT 240536Z 2406/2506 09006KT P6SM VCSH BKN050 
     FM241200 12005KT 5SM BR BKN025 OVC050 
     FM241500 22008KT P6SM OVC030 
     FM250000 20007KT P6SM VCTS BKN050CB 
     PROB30 2500/2506 VRB20G40KT 2SM TSRA BR OVC015CB
       
KJBR 240653Z AUTO 32003KT 8SM -RA OVC085 11/09 A3015 RMK AO2 RAB0556 SLP208 P0000 T01110094 $
KJBR 240522Z 2406/2506 06004KT P6SM VCSH BKN120 
     FM240700 14005KT P6SM VCSH OVC070 
     TEMPO 2410/2414 5SM -RA OVC040 
     FM241400 21012G18KT P6SM VCSH BKN040 
     FM250000 21010KT P6SM BKN040 
     FM250300 21010KT 5SM -SHRA VCTS OVC030CB
       
KLIT 240653Z 00000KT 10SM SCT070 OVC110 12/09 A3011 RMK AO2 RAE17 SLP197 P0000 T01220089
KLIT 240536Z 2406/2506 07006KT P6SM VCSH BKN050 
     FM241200 12005KT 5SM BR BKN025 OVC050 
     FM241500 22008KT P6SM OVC030 
     FM250000 20007KT P6SM VCTS BKN050CB 
     PROB30 2500/2506 VRB20G40KT 2SM TSRA BR OVC015CB
       
KMEZ 240715Z AUTO 00000KT 10SM VCTS SCT004 OVC037 A3006 RMK AO2 LTG DSNT W
KLLQ 240653Z AUTO 18003KT 10SM FEW090 SCT110 14/06 A3012 RMK AO2 SLP197 T01390056
KLLQ 240536Z 2406/2506 VRB03KT P6SM SCT050 BKN100 
     FM241000 17005KT P6SM OVC050 
     FM241600 20010KT P6SM BKN035 
     FM250000 18008KT P6SM VCTS SCT025 BKN050CB 
     PROB30 2503/2506 VRB20G40KT 2SM TSRA BR OVC015CB
       
KBPK 240653Z AUTO 14008KT 10SM BKN070 BKN085 09/08 A3008 RMK AO2 RAE25 SLP184 P0000 T00940078 TSNO
KBPK 240536Z 2406/2506 14009KT P6SM VCTS SCT025 BKN050CB 
     TEMPO 2407/2410 5SM -TSRA BR OVC025CB 
     FM241400 21012KT P6SM BKN025 OVC050 
     FM242100 23010G18KT P6SM VCTS BKN050CB 
     PROB30 2421/2503 4SM -TSRA BR OVC025CB 
     FM250300 30008KT P6SM SCT050 BKN100
       
KM19 240656Z AUTO 03003KT 10SM -RA OVC085 11/09 A3014 RMK AO2 SLP212 P0004 T01110094
KPBF 240653Z AUTO 13008KT 10SM OVC090 14/07 A3010 RMK AO2 SLP191 T01390067
KPBF 240536Z 2406/2506 VRB03KT P6SM SCT050 BKN100 
     FM241000 17005KT P6SM OVC050 
     FM241600 20010KT P6SM BKN035 
     FM250000 18008KT P6SM VCTS SCT025 BKN050CB 
     PROB30 2503/2506 VRB20G40KT 2SM TSRA BR OVC015CB
       
KROG 240709Z AUTO 10007KT 10SM FEW003 BKN032 OVC085 10/09 A3005 RMK AO2 LTG DSNT S RAE07 P0000
KROG 240724Z 2407/2506 10007KT P6SM VCSH FEW003 BKN030 OVC090 
     FM240900 18007KT P6SM OVC015 
     FM241500 20010G18KT P6SM OVC015 
     FM242100 22010KT P6SM VCTS OVC015CB 
     FM250000 28006KT P6SM OVC015
       
KRUE 240653Z AUTO 11005KT 10SM OVC065 12/09 A3006 RMK AO2 SLP176 T01170089
KSRC 240656Z AUTO 07006KT 10SM OVC090 12/10 A3012 RMK AO2 RAE46 SLP207 P0001 T01170100
KSLG 240656Z AUTO 11004KT 10SM BKN048 BKN055 11/10 A3005 RMK AO2 LTG DSNT SE TSE31RAE36 SLP175 P0004 T01060100
KASG 240148Z 10008KT 10SM OVC050 10/10 A3007
KSGT 240656Z AUTO 10009KT 9SM -RA OVC090 15/06 A3010 RMK AO2 RAB45 SLP193 P0000 T01500061
KTXK 240653Z AUTO 19008KT 10SM OVC060 17/12 A3007 RMK AO2 LTG DSNT NE RAB39E52 SLP177 P0002 T01670117
KTXK 240532Z 2406/2506 18008KT P6SM BKN060 
     TEMPO 2406/2409 18012G18KT SCT060 OVC120 
     FM241300 18008KT P6SM BKN023 
     FM241700 21010KT P6SM BKN025 
     FM242000 21010KT P6SM BKN035 
     FM250000 20007KT P6SM BKN045 
     FM250400 20007KT P6SM VCTS BKN045CB
       
KARG 240656Z AUTO 00000KT 10SM -RA OVC090 10/08 A3015 RMK AO2 SLP210 P0002 T01000083